Rakoskert, Hungary

12:44 PM CET on December 05, 2016 (GMT +0100)
Szigetcsep u. | | Change Station

Elev 669 ft 47.47 °N, 19.31 °E | Updated 7 seconds ago

Mist
Mist
31.8 °F
Feels Like 32 °F
N
0.0
Wind Variable Wind from South
Gusts 0.0 mph

Today
High -- | Low -- °F
--% Chance of Precip.
Yesterday
High -- | Low -- °F
Precip. -- in
Pressure 30.51 in
Visibility 2.5 miles
Clouds
Windchill 32 °F
Dew Point 26 °F
Humidity 77%
Rainfall 0.00 in
Snow Depth Not available.
7:14 AM 3:52 PM
Waxing Crescent, 31% visible
METAR LHBP 051130Z 10006KT 070V130 4000 BR NSC M01/M03 Q1033 NOSIG
Pressure 30.51 in
Visibility 2.5 miles
Clouds
Windchill 32 °F
Dew Point 26 °F
Humidity 77%
Rainfall 0.00 in
Snow Depth Not available.
7:14 AM 3:52 PM
Waxing Crescent, 31% visible
METAR LHBP 051130Z 10006KT 070V130 4000 BR NSC M01/M03 Q1033 NOSIG

10-Day Weather Forecast

×

Almanac

Astronomy

Dec. 05, 2016 Rise Set
Actual Time
Civil Twilight
Nautical Twilight
Astronomical Twilight
Moon
Length of Visible Light
Length of Day
Tomorrow will be .
, % of the Moon is Illuminated

Today's Extremes

Country Highs Country Lows

Community

WunderPhotos

Upload Photos

1,955,777 photos uploaded!

WunderBlog® & News

Nearby

Air Quality

  Air Quality AQ Index Pollutant
Not available.

Snow Depth

Station Depth Elevation

Earthquake Activity

City Distance Mag. Time & Date
Minimum magnitude displayed is 2.5.

Coastal Water Temperatures

Place Temperature

Stations

Nearby Weather Stations

Station Location Temp. Windchill Dew Point Humidity Wind Precip. Elev Updated Type